sensor_id;sensor_type;location;lat;lon;timestamp;P1;durP1;ratioP1;P2;durP2;ratioP2
10473;SDS011;5284;50.446;7.904;2023-05-07T00:00:55;9.98;;;2.63;;
10473;SDS011;5284;50.446;7.904;2023-05-07T00:06:00;8.23;;;2.77;;
10473;SDS011;5284;50.446;7.904;2023-05-07T00:11:04;8.98;;;2.63;;
10473;SDS011;5284;50.446;7.904;2023-05-07T00:16:08;9.20;;;3.13;;
10473;SDS011;5284;50.446;7.904;2023-05-07T00:21:11;3.30;;;2.28;;
10473;SDS011;5284;50.446;7.904;2023-05-07T00:26:14;7.57;;;2.80;;
10473;SDS011;5284;50.446;7.904;2023-05-07T00:31:19;5.00;;;1.83;;
10473;SDS011;5284;50.446;7.904;2023-05-07T00:36:22;4.65;;;1.90;;
10473;SDS011;5284;50.446;7.904;2023-05-07T00:41:25;2.65;;;1.75;;
10473;SDS011;5284;50.446;7.904;2023-05-07T00:46:29;4.10;;;1.85;;
10473;SDS011;5284;50.446;7.904;2023-05-07T00:51:33;8.05;;;2.20;;
10473;SDS011;5284;50.446;7.904;2023-05-07T00:56:36;7.93;;;1.85;;
10473;SDS011;5284;50.446;7.904;2023-05-07T01:01:41;6.63;;;1.70;;
10473;SDS011;5284;50.446;7.904;2023-05-07T01:06:45;5.15;;;2.67;;
10473;SDS011;5284;50.446;7.904;2023-05-07T01:11:49;6.88;;;2.00;;
10473;SDS011;5284;50.446;7.904;2023-05-07T01:16:54;14.27;;;2.78;;
10473;SDS011;5284;50.446;7.904;2023-05-07T01:22:01;4.47;;;2.33;;
10473;SDS011;5284;50.446;7.904;2023-05-07T01:27:14;8.70;;;3.13;;
10473;SDS011;5284;50.446;7.904;2023-05-07T01:32:17;7.70;;;2.53;;
10473;SDS011;5284;50.446;7.904;2023-05-07T01:37:24;4.73;;;2.63;;
10473;SDS011;5284;50.446;7.904;2023-05-07T01:42:29;6.70;;;3.00;;
10473;SDS011;5284;50.446;7.904;2023-05-07T01:47:33;5.45;;;2.25;;
10473;SDS011;5284;50.446;7.904;2023-05-07T01:52:38;9.80;;;2.38;;
10473;SDS011;5284;50.446;7.904;2023-05-07T01:57:43;7.10;;;2.65;;
10473;SDS011;5284;50.446;7.904;2023-05-07T02:02:46;3.85;;;2.80;;
10473;SDS011;5284;50.446;7.904;2023-05-07T02:08:02;5.05;;;2.55;;
10473;SDS011;5284;50.446;7.904;2023-05-07T02:13:07;9.77;;;2.58;;
10473;SDS011;5284;50.446;7.904;2023-05-07T02:18:10;7.68;;;2.03;;
10473;SDS011;5284;50.446;7.904;2023-05-07T02:23:13;6.10;;;2.40;;
10473;SDS011;5284;50.446;7.904;2023-05-07T02:28:17;2.30;;;2.10;;
10473;SDS011;5284;50.446;7.904;2023-05-07T02:33:27;3.67;;;2.20;;
10473;SDS011;5284;50.446;7.904;2023-05-07T02:38:31;4.50;;;1.88;;
10473;SDS011;5284;50.446;7.904;2023-05-07T02:43:35;7.18;;;2.28;;
10473;SDS011;5284;50.446;7.904;2023-05-07T02:48:38;5.95;;;2.30;;
10473;SDS011;5284;50.446;7.904;2023-05-07T02:53:41;7.28;;;2.30;;
10473;SDS011;5284;50.446;7.904;2023-05-07T02:58:46;3.58;;;2.00;;
10473;SDS011;5284;50.446;7.904;2023-05-07T03:03:52;4.55;;;2.08;;
10473;SDS011;5284;50.446;7.904;2023-05-07T03:08:56;3.63;;;1.92;;
10473;SDS011;5284;50.446;7.904;2023-05-07T03:14:00;11.32;;;2.53;;
10473;SDS011;5284;50.446;7.904;2023-05-07T03:19:03;6.43;;;2.38;;
10473;SDS011;5284;50.446;7.904;2023-05-07T03:24:06;9.32;;;2.35;;
10473;SDS011;5284;50.446;7.904;2023-05-07T03:29:11;6.65;;;2.30;;
10473;SDS011;5284;50.446;7.904;2023-05-07T03:34:13;10.50;;;2.15;;
10473;SDS011;5284;50.446;7.904;2023-05-07T03:39:18;6.63;;;2.10;;
10473;SDS011;5284;50.446;7.904;2023-05-07T03:44:22;6.50;;;2.15;;
10473;SDS011;5284;50.446;7.904;2023-05-07T03:49:27;7.13;;;2.53;;
10473;SDS011;5284;50.446;7.904;2023-05-07T03:54:30;6.30;;;2.70;;
10473;SDS011;5284;50.446;7.904;2023-05-07T03:59:35;4.25;;;2.47;;
10473;SDS011;5284;50.446;7.904;2023-05-07T04:04:38;10.40;;;2.17;;
10473;SDS011;5284;50.446;7.904;2023-05-07T04:09:42;6.22;;;2.40;;
10473;SDS011;5284;50.446;7.904;2023-05-07T05:08:26;4.60;;;2.55;;
10473;SDS011;5284;50.446;7.904;2023-05-07T05:13:31;4.20;;;2.80;;
10473;SDS011;5284;50.446;7.904;2023-05-07T05:18:37;5.13;;;2.93;;
10473;SDS011;5284;50.446;7.904;2023-05-07T05:23:43;8.00;;;2.85;;
10473;SDS011;5284;50.446;7.904;2023-05-07T05:28:48;7.07;;;2.55;;
10473;SDS011;5284;50.446;7.904;2023-05-07T05:33:54;6.03;;;2.90;;
10473;SDS011;5284;50.446;7.904;2023-05-07T05:38:58;8.60;;;2.55;;
10473;SDS011;5284;50.446;7.904;2023-05-07T05:44:02;8.70;;;2.60;;
10473;SDS011;5284;50.446;7.904;2023-05-07T05:49:05;5.38;;;2.45;;
10473;SDS011;5284;50.446;7.904;2023-05-07T05:54:10;10.43;;;2.53;;
10473;SDS011;5284;50.446;7.904;2023-05-07T05:59:13;9.63;;;2.95;;
10473;SDS011;5284;50.446;7.904;2023-05-07T06:04:16;5.38;;;3.20;;
10473;SDS011;5284;50.446;7.904;2023-05-07T06:09:21;4.53;;;2.60;;
10473;SDS011;5284;50.446;7.904;2023-05-07T06:14:24;7.55;;;3.22;;
10473;SDS011;5284;50.446;7.904;2023-05-07T06:19:29;8.23;;;2.78;;
10473;SDS011;5284;50.446;7.904;2023-05-07T06:24:35;7.22;;;3.10;;
10473;SDS011;5284;50.446;7.904;2023-05-07T06:29:39;4.07;;;3.03;;
10473;SDS011;5284;50.446;7.904;2023-05-07T06:34:47;8.45;;;2.92;;
10473;SDS011;5284;50.446;7.904;2023-05-07T06:39:52;5.45;;;3.25;;
10473;SDS011;5284;50.446;7.904;2023-05-07T06:44:55;8.38;;;3.22;;
10473;SDS011;5284;50.446;7.904;2023-05-07T06:49:58;5.82;;;3.38;;
10473;SDS011;5284;50.446;7.904;2023-05-07T06:55:07;4.18;;;2.85;;
10473;SDS011;5284;50.446;7.904;2023-05-07T07:00:10;7.53;;;3.40;;
10473;SDS011;5284;50.446;7.904;2023-05-07T07:05:21;7.78;;;3.63;;
10473;SDS011;5284;50.446;7.904;2023-05-07T07:10:25;10.75;;;4.00;;
10473;SDS011;5284;50.446;7.904;2023-05-07T07:15:30;11.80;;;4.22;;
10473;SDS011;5284;50.446;7.904;2023-05-07T07:20:33;6.57;;;3.20;;
10473;SDS011;5284;50.446;7.904;2023-05-07T07:25:39;5.50;;;3.55;;
10473;SDS011;5284;50.446;7.904;2023-05-07T07:30:43;10.57;;;4.15;;
10473;SDS011;5284;50.446;7.904;2023-05-07T07:35:46;9.60;;;3.80;;
10473;SDS011;5284;50.446;7.904;2023-05-07T07:40:51;6.93;;;4.03;;
10473;SDS011;5284;50.446;7.904;2023-05-07T07:45:54;11.20;;;4.00;;
10473;SDS011;5284;50.446;7.904;2023-05-07T07:50:58;7.50;;;4.32;;
10473;SDS011;5284;50.446;7.904;2023-05-07T07:56:03;10.75;;;4.15;;
10473;SDS011;5284;50.446;7.904;2023-05-07T08:01:08;7.05;;;4.20;;
10473;SDS011;5284;50.446;7.904;2023-05-07T08:06:14;8.83;;;4.80;;
10473;SDS011;5284;50.446;7.904;2023-05-07T08:11:20;11.90;;;4.53;;
10473;SDS011;5284;50.446;7.904;2023-05-07T08:16:24;7.70;;;4.15;;
10473;SDS011;5284;50.446;7.904;2023-05-07T08:21:27;6.70;;;3.90;;
10473;SDS011;5284;50.446;7.904;2023-05-07T08:26:37;7.18;;;4.72;;
10473;SDS011;5284;50.446;7.904;2023-05-07T08:31:42;8.20;;;4.38;;
10473;SDS011;5284;50.446;7.904;2023-05-07T08:36:45;6.80;;;4.03;;
10473;SDS011;5284;50.446;7.904;2023-05-07T08:41:55;7.68;;;4.78;;
10473;SDS011;5284;50.446;7.904;2023-05-07T08:47:00;5.93;;;3.63;;
10473;SDS011;5284;50.446;7.904;2023-05-07T08:52:09;6.05;;;3.63;;
10473;SDS011;5284;50.446;7.904;2023-05-07T08:57:16;6.88;;;3.70;;
10473;SDS011;5284;50.446;7.904;2023-05-07T09:02:22;16.00;;;3.72;;
10473;SDS011;5284;50.446;7.904;2023-05-07T09:07:27;9.98;;;5.15;;
10473;SDS011;5284;50.446;7.904;2023-05-07T09:12:32;7.10;;;4.45;;
10473;SDS011;5284;50.446;7.904;2023-05-07T09:17:38;8.60;;;4.68;;
10473;SDS011;5284;50.446;7.904;2023-05-07T09:22:44;5.03;;;4.05;;
10473;SDS011;5284;50.446;7.904;2023-05-07T09:27:51;9.65;;;4.72;;
10473;SDS011;5284;50.446;7.904;2023-05-07T09:32:54;6.95;;;4.47;;
10473;SDS011;5284;50.446;7.904;2023-05-07T09:37:58;34.38;;;12.38;;
10473;SDS011;5284;50.446;7.904;2023-05-07T09:43:10;6.97;;;4.10;;
10473;SDS011;5284;50.446;7.904;2023-05-07T09:48:28;10.32;;;4.50;;
10473;SDS011;5284;50.446;7.904;2023-05-07T09:53:32;10.43;;;5.18;;
10473;SDS011;5284;50.446;7.904;2023-05-07T09:58:39;8.38;;;4.15;;
10473;SDS011;5284;50.446;7.904;2023-05-07T10:03:44;15.52;;;4.97;;
10473;SDS011;5284;50.446;7.904;2023-05-07T10:08:49;19.80;;;9.10;;
10473;SDS011;5284;50.446;7.904;2023-05-07T10:13:55;10.77;;;5.88;;
10473;SDS011;5284;50.446;7.904;2023-05-07T10:19:04;8.75;;;4.55;;
10473;SDS011;5284;50.446;7.904;2023-05-07T10:24:09;16.73;;;5.82;;
10473;SDS011;5284;50.446;7.904;2023-05-07T10:29:18;4.97;;;3.45;;
10473;SDS011;5284;50.446;7.904;2023-05-07T10:34:34;9.93;;;4.70;;
10473;SDS011;5284;50.446;7.904;2023-05-07T10:39:41;9.85;;;4.10;;
10473;SDS011;5284;50.446;7.904;2023-05-07T10:44:46;9.40;;;4.72;;
10473;SDS011;5284;50.446;7.904;2023-05-07T10:55:26;10.57;;;4.40;;
10473;SDS011;5284;50.446;7.904;2023-05-07T11:00:42;7.00;;;3.88;;
10473;SDS011;5284;50.446;7.904;2023-05-07T11:06:09;9.32;;;4.05;;
10473;SDS011;5284;50.446;7.904;2023-05-07T11:11:45;8.70;;;4.20;;
10473;SDS011;5284;50.446;7.904;2023-05-07T11:17:11;7.72;;;4.10;;
10473;SDS011;5284;50.446;7.904;2023-05-07T11:27:51;9.85;;;5.35;;
10473;SDS011;5284;50.446;7.904;2023-05-07T11:32:56;5.57;;;3.33;;
10473;SDS011;5284;50.446;7.904;2023-05-07T11:37:59;9.20;;;3.92;;
10473;SDS011;5284;50.446;7.904;2023-05-07T11:43:10;11.80;;;4.65;;
10473;SDS011;5284;50.446;7.904;2023-05-07T11:48:14;6.28;;;4.20;;
10473;SDS011;5284;50.446;7.904;2023-05-07T11:53:18;11.20;;;4.30;;
10473;SDS011;5284;50.446;7.904;2023-05-07T11:58:22;4.75;;;3.67;;
10473;SDS011;5284;50.446;7.904;2023-05-07T12:03:27;9.75;;;4.45;;
10473;SDS011;5284;50.446;7.904;2023-05-07T12:08:38;12.50;;;4.00;;
10473;SDS011;5284;50.446;7.904;2023-05-07T12:13:42;7.13;;;4.55;;
10473;SDS011;5284;50.446;7.904;2023-05-07T12:18:47;5.03;;;3.50;;
10473;SDS011;5284;50.446;7.904;2023-05-07T12:23:50;22.15;;;13.70;;
10473;SDS011;5284;50.446;7.904;2023-05-07T12:28:53;29.88;;;14.75;;
10473;SDS011;5284;50.446;7.904;2023-05-07T12:34:01;7.00;;;4.60;;
10473;SDS011;5284;50.446;7.904;2023-05-07T12:39:04;5.05;;;3.53;;
10473;SDS011;5284;50.446;7.904;2023-05-07T12:44:07;5.53;;;3.53;;
10473;SDS011;5284;50.446;7.904;2023-05-07T12:49:13;6.18;;;3.42;;
10473;SDS011;5284;50.446;7.904;2023-05-07T12:54:27;5.40;;;3.63;;
10473;SDS011;5284;50.446;7.904;2023-05-07T12:59:35;4.63;;;3.40;;
10473;SDS011;5284;50.446;7.904;2023-05-07T13:04:43;6.07;;;3.75;;
10473;SDS011;5284;50.446;7.904;2023-05-07T13:09:46;6.63;;;3.38;;
10473;SDS011;5284;50.446;7.904;2023-05-07T13:14:51;5.03;;;2.67;;
10473;SDS011;5284;50.446;7.904;2023-05-07T13:19:56;4.60;;;2.88;;
10473;SDS011;5284;50.446;7.904;2023-05-07T13:24:58;8.50;;;3.80;;
10473;SDS011;5284;50.446;7.904;2023-05-07T13:30:03;23.80;;;9.13;;
10473;SDS011;5284;50.446;7.904;2023-05-07T13:35:11;5.95;;;2.67;;
10473;SDS011;5284;50.446;7.904;2023-05-07T13:40:14;17.53;;;3.23;;
10473;SDS011;5284;50.446;7.904;2023-05-07T13:45:18;3.70;;;2.80;;
10473;SDS011;5284;50.446;7.904;2023-05-07T13:50:22;4.13;;;3.05;;
10473;SDS011;5284;50.446;7.904;2023-05-07T13:55:25;5.95;;;2.95;;
10473;SDS011;5284;50.446;7.904;2023-05-07T14:00:31;9.30;;;2.75;;
10473;SDS011;5284;50.446;7.904;2023-05-07T14:05:35;6.95;;;5.43;;
10473;SDS011;5284;50.446;7.904;2023-05-07T14:10:38;5.57;;;3.50;;
10473;SDS011;5284;50.446;7.904;2023-05-07T14:15:41;4.60;;;2.72;;
10473;SDS011;5284;50.446;7.904;2023-05-07T14:20:49;5.22;;;2.80;;
10473;SDS011;5284;50.446;7.904;2023-05-07T14:25:52;6.70;;;4.10;;
10473;SDS011;5284;50.446;7.904;2023-05-07T14:30:55;5.97;;;3.40;;
10473;SDS011;5284;50.446;7.904;2023-05-07T14:36:00;4.35;;;3.88;;
10473;SDS011;5284;50.446;7.904;2023-05-07T14:41:04;5.05;;;3.50;;
10473;SDS011;5284;50.446;7.904;2023-05-07T14:46:07;15.27;;;9.85;;
10473;SDS011;5284;50.446;7.904;2023-05-07T14:51:11;12.57;;;7.03;;
10473;SDS011;5284;50.446;7.904;2023-05-07T14:56:14;6.03;;;3.25;;
10473;SDS011;5284;50.446;7.904;2023-05-07T15:01:18;7.85;;;3.95;;
10473;SDS011;5284;50.446;7.904;2023-05-07T15:06:24;8.68;;;3.05;;
10473;SDS011;5284;50.446;7.904;2023-05-07T15:11:28;7.35;;;3.45;;
10473;SDS011;5284;50.446;7.904;2023-05-07T15:16:31;10.23;;;4.97;;
10473;SDS011;5284;50.446;7.904;2023-05-07T15:21:38;10.52;;;3.22;;
10473;SDS011;5284;50.446;7.904;2023-05-07T15:26:41;25.00;;;7.45;;
10473;SDS011;5284;50.446;7.904;2023-05-07T15:31:44;7.95;;;4.90;;
10473;SDS011;5284;50.446;7.904;2023-05-07T15:36:49;18.40;;;7.88;;
10473;SDS011;5284;50.446;7.904;2023-05-07T15:41:52;10.63;;;5.28;;
10473;SDS011;5284;50.446;7.904;2023-05-07T15:46:56;8.05;;;2.53;;
10473;SDS011;5284;50.446;7.904;2023-05-07T15:52:02;5.38;;;2.88;;
10473;SDS011;5284;50.446;7.904;2023-05-07T15:57:05;7.55;;;3.13;;
10473;SDS011;5284;50.446;7.904;2023-05-07T16:02:09;8.68;;;3.72;;
10473;SDS011;5284;50.446;7.904;2023-05-07T16:07:13;4.43;;;3.10;;
10473;SDS011;5284;50.446;7.904;2023-05-07T16:12:17;7.43;;;3.03;;
10473;SDS011;5284;50.446;7.904;2023-05-07T16:17:20;7.93;;;3.50;;
10473;SDS011;5284;50.446;7.904;2023-05-07T16:22:24;6.13;;;4.00;;
10473;SDS011;5284;50.446;7.904;2023-05-07T16:27:29;9.73;;;3.65;;
10473;SDS011;5284;50.446;7.904;2023-05-07T16:32:32;4.10;;;3.05;;
10473;SDS011;5284;50.446;7.904;2023-05-07T16:37:38;3.30;;;2.75;;
10473;SDS011;5284;50.446;7.904;2023-05-07T16:42:41;6.53;;;3.33;;
10473;SDS011;5284;50.446;7.904;2023-05-07T16:47:44;35.58;;;3.53;;
10473;SDS011;5284;50.446;7.904;2023-05-07T16:52:49;5.18;;;3.75;;
10473;SDS011;5284;50.446;7.904;2023-05-07T16:57:52;4.95;;;3.25;;
10473;SDS011;5284;50.446;7.904;2023-05-07T17:02:56;47.05;;;3.33;;
10473;SDS011;5284;50.446;7.904;2023-05-07T17:08:00;3.58;;;2.25;;
10473;SDS011;5284;50.446;7.904;2023-05-07T17:13:03;30.77;;;3.25;;
10473;SDS011;5284;50.446;7.904;2023-05-07T17:18:09;3.75;;;2.40;;
10473;SDS011;5284;50.446;7.904;2023-05-07T17:23:13;6.97;;;2.60;;
10473;SDS011;5284;50.446;7.904;2023-05-07T17:28:15;8.73;;;2.63;;
10473;SDS011;5284;50.446;7.904;2023-05-07T17:33:18;4.43;;;2.08;;
10473;SDS011;5284;50.446;7.904;2023-05-07T17:38:24;6.15;;;3.05;;
10473;SDS011;5284;50.446;7.904;2023-05-07T17:43:30;4.00;;;2.47;;
10473;SDS011;5284;50.446;7.904;2023-05-07T17:48:33;7.65;;;2.83;;
10473;SDS011;5284;50.446;7.904;2023-05-07T17:53:37;3.72;;;1.60;;
10473;SDS011;5284;50.446;7.904;2023-05-07T17:58:42;1.93;;;1.37;;
10473;SDS011;5284;50.446;7.904;2023-05-07T18:03:59;3.40;;;1.83;;
10473;SDS011;5284;50.446;7.904;2023-05-07T18:09:04;5.35;;;1.85;;
10473;SDS011;5284;50.446;7.904;2023-05-07T18:14:07;7.03;;;2.22;;
10473;SDS011;5284;50.446;7.904;2023-05-07T18:19:12;5.60;;;2.22;;
10473;SDS011;5284;50.446;7.904;2023-05-07T18:31:04;5.15;;;1.60;;
10473;SDS011;5284;50.446;7.904;2023-05-07T18:36:08;7.03;;;2.05;;
10473;SDS011;5284;50.446;7.904;2023-05-07T18:41:12;12.90;;;2.00;;
10473;SDS011;5284;50.446;7.904;2023-05-07T18:46:18;7.40;;;2.53;;
10473;SDS011;5284;50.446;7.904;2023-05-07T18:51:21;13.30;;;2.28;;
10473;SDS011;5284;50.446;7.904;2023-05-07T18:56:24;6.60;;;2.22;;
10473;SDS011;5284;50.446;7.904;2023-05-07T19:01:30;6.68;;;2.10;;
10473;SDS011;5284;50.446;7.904;2023-05-07T19:06:33;4.93;;;2.50;;
10473;SDS011;5284;50.446;7.904;2023-05-07T19:11:37;5.78;;;3.05;;
10473;SDS011;5284;50.446;7.904;2023-05-07T19:16:41;5.75;;;2.08;;
10473;SDS011;5284;50.446;7.904;2023-05-07T19:21:44;6.35;;;2.08;;
10473;SDS011;5284;50.446;7.904;2023-05-07T19:26:47;7.32;;;2.08;;
10473;SDS011;5284;50.446;7.904;2023-05-07T19:31:52;6.43;;;1.48;;
10473;SDS011;5284;50.446;7.904;2023-05-07T19:36:55;1.98;;;1.42;;
10473;SDS011;5284;50.446;7.904;2023-05-07T19:41:58;3.60;;;1.98;;
10473;SDS011;5284;50.446;7.904;2023-05-07T19:47:03;6.68;;;2.60;;
10473;SDS011;5284;50.446;7.904;2023-05-07T19:52:07;7.28;;;2.92;;
10473;SDS011;5284;50.446;7.904;2023-05-07T19:57:11;5.85;;;2.60;;
10473;SDS011;5284;50.446;7.904;2023-05-07T20:02:16;10.63;;;2.58;;
10473;SDS011;5284;50.446;7.904;2023-05-07T20:07:21;8.13;;;2.40;;
10473;SDS011;5284;50.446;7.904;2023-05-07T20:12:23;4.75;;;2.15;;
10473;SDS011;5284;50.446;7.904;2023-05-07T20:17:28;7.57;;;1.92;;
10473;SDS011;5284;50.446;7.904;2023-05-07T20:22:31;3.30;;;1.83;;
10473;SDS011;5284;50.446;7.904;2023-05-07T20:27:33;4.15;;;2.33;;
10473;SDS011;5284;50.446;7.904;2023-05-07T20:32:42;16.42;;;2.03;;
10473;SDS011;5284;50.446;7.904;2023-05-07T20:37:45;7.30;;;2.60;;
10473;SDS011;5284;50.446;7.904;2023-05-07T20:42:49;2.80;;;2.20;;
10473;SDS011;5284;50.446;7.904;2023-05-07T20:47:53;5.90;;;2.47;;
10473;SDS011;5284;50.446;7.904;2023-05-07T20:52:55;3.95;;;2.42;;
10473;SDS011;5284;50.446;7.904;2023-05-07T20:57:58;4.70;;;2.10;;
10473;SDS011;5284;50.446;7.904;2023-05-07T21:03:02;8.73;;;3.38;;
10473;SDS011;5284;50.446;7.904;2023-05-07T21:08:05;9.18;;;3.78;;
10473;SDS011;5284;50.446;7.904;2023-05-07T21:13:08;8.85;;;4.13;;
10473;SDS011;5284;50.446;7.904;2023-05-07T21:18:12;6.68;;;3.65;;
10473;SDS011;5284;50.446;7.904;2023-05-07T21:23:16;12.65;;;3.75;;
10473;SDS011;5284;50.446;7.904;2023-05-07T21:28:18;9.02;;;3.78;;
10473;SDS011;5284;50.446;7.904;2023-05-07T21:33:23;13.60;;;3.78;;
10473;SDS011;5284;50.446;7.904;2023-05-07T21:38:25;7.70;;;3.40;;
10473;SDS011;5284;50.446;7.904;2023-05-07T21:43:28;6.50;;;3.90;;
10473;SDS011;5284;50.446;7.904;2023-05-07T21:48:33;8.52;;;3.13;;
10473;SDS011;5284;50.446;7.904;2023-05-07T21:53:36;6.35;;;3.80;;
10473;SDS011;5284;50.446;7.904;2023-05-07T21:58:38;11.32;;;4.15;;
10473;SDS011;5284;50.446;7.904;2023-05-07T22:03:43;8.68;;;4.72;;
10473;SDS011;5284;50.446;7.904;2023-05-07T22:08:46;8.23;;;4.28;;
10473;SDS011;5284;50.446;7.904;2023-05-07T22:13:49;11.45;;;4.97;;
10473;SDS011;5284;50.446;7.904;2023-05-07T22:18:54;9.77;;;3.72;;
10473;SDS011;5284;50.446;7.904;2023-05-07T22:23:56;9.30;;;4.05;;
10473;SDS011;5284;50.446;7.904;2023-05-07T22:28:59;9.07;;;3.65;;
10473;SDS011;5284;50.446;7.904;2023-05-07T22:34:03;8.55;;;4.18;;
10473;SDS011;5284;50.446;7.904;2023-05-07T22:39:06;9.80;;;5.03;;
10473;SDS011;5284;50.446;7.904;2023-05-07T22:44:10;17.60;;;5.68;;
10473;SDS011;5284;50.446;7.904;2023-05-07T22:49:14;14.05;;;5.97;;
10473;SDS011;5284;50.446;7.904;2023-05-07T22:54:17;12.35;;;5.68;;
10473;SDS011;5284;50.446;7.904;2023-05-07T22:59:20;12.63;;;6.30;;
10473;SDS011;5284;50.446;7.904;2023-05-07T23:04:25;12.57;;;5.93;;
10473;SDS011;5284;50.446;7.904;2023-05-07T23:09:27;13.38;;;7.43;;
10473;SDS011;5284;50.446;7.904;2023-05-07T23:14:31;17.73;;;8.80;;
10473;SDS011;5284;50.446;7.904;2023-05-07T23:19:35;14.68;;;9.15;;
10473;SDS011;5284;50.446;7.904;2023-05-07T23:24:38;21.23;;;9.27;;
10473;SDS011;5284;50.446;7.904;2023-05-07T23:29:41;25.63;;;9.00;;
10473;SDS011;5284;50.446;7.904;2023-05-07T23:34:49;20.33;;;11.05;;
10473;SDS011;5284;50.446;7.904;2023-05-07T23:39:54;24.33;;;11.70;;
10473;SDS011;5284;50.446;7.904;2023-05-07T23:44:57;26.90;;;10.75;;
10473;SDS011;5284;50.446;7.904;2023-05-07T23:50:01;27.95;;;11.02;;
10473;SDS011;5284;50.446;7.904;2023-05-07T23:55:04;18.52;;;10.43;;
